createdAt,value
2022-08-19T04:43:15.778Z,12.50
2022-08-19T04:45:46.798Z,25.70
2022-08-19T04:48:26.432Z,17.13
2022-08-19T04:50:58.816Z,15.90
2022-08-19T04:53:35.522Z,16.58
2022-08-19T04:56:11.499Z,16.33
2022-08-19T04:58:41.305Z,14.43
2022-08-19T05:01:10.174Z,13.75
2022-08-19T05:03:37.563Z,16.02
2022-08-19T05:06:09.635Z,13.38
2022-08-19T05:08:38.768Z,14.50
2022-08-19T05:11:15.024Z,21.60
2022-08-19T05:13:44.139Z,17.42
2022-08-19T05:16:13.313Z,13.07
2022-08-19T05:18:59.937Z,17.42
2022-08-19T05:21:46.459Z,17.60
2022-08-19T05:24:15.144Z,18.67
2022-08-19T05:26:44.388Z,16.15
2022-08-19T05:29:11.455Z,14.80
2022-08-19T05:31:41.913Z,21.02
2022-08-19T05:34:20.249Z,17.50
2022-08-19T05:36:47.665Z,20.27
2022-08-19T05:39:21.473Z,23.98
2022-08-19T05:41:51.336Z,17.27
2022-08-19T05:44:19.077Z,19.30
2022-08-19T05:46:48.273Z,16.38
2022-08-19T05:49:17.456Z,17.98
2022-08-19T05:51:44.455Z,15.05
2022-08-19T05:54:14.566Z,23.40
2022-08-19T05:56:43.478Z,13.05
2022-08-19T05:59:12.620Z,17.13
2022-08-19T06:01:40.695Z,21.40
2022-08-19T06:04:07.829Z,22.73
2022-08-19T06:06:36.230Z,21.95
2022-08-19T06:09:05.020Z,17.70
2022-08-19T06:11:40.845Z,20.48
2022-08-19T06:14:16.538Z,36.35
2022-08-19T06:16:44.761Z,19.10
2022-08-19T06:19:17.758Z,17.10
2022-08-19T06:21:48.565Z,18.83
2022-08-19T06:24:19.481Z,12.98
2022-08-19T06:29:36.406Z,17.60
2022-08-19T06:32:04.368Z,14.68
2022-08-19T06:34:34.258Z,22.70
2022-08-19T06:37:02.498Z,15.00
2022-08-19T06:39:33.906Z,17.23
2022-08-19T06:42:04.385Z,13.73
2022-08-19T06:44:38.436Z,15.90
2022-08-19T06:47:14.611Z,11.02
2022-08-19T06:49:43.528Z,16.40
2022-08-19T06:52:15.421Z,14.27
2022-08-19T06:54:55.876Z,16.83
2022-08-19T06:57:25.583Z,13.55
2022-08-19T06:59:52.978Z,16.83
2022-08-19T07:02:20.619Z,12.25
2022-08-19T07:04:47.658Z,13.38
2022-08-19T07:07:20.113Z,21.50
2022-08-19T07:09:59.874Z,20.60
2022-08-19T07:12:38.092Z,14.25
2022-08-19T07:15:12.060Z,12.50
2022-08-19T07:17:42.056Z,12.88
2022-08-19T07:20:10.842Z,11.73
2022-08-19T07:22:39.455Z,14.30
2022-08-19T07:25:09.845Z,12.45
2022-08-19T07:27:39.496Z,11.00
2022-08-19T07:30:07.907Z,11.85
2022-08-19T07:32:38.971Z,14.63
2022-08-19T07:35:07.388Z,10.00
2022-08-19T07:37:36.713Z,15.15
2022-08-19T07:40:06.961Z,19.95
2022-08-19T07:42:34.254Z,15.38
2022-08-19T07:45:01.294Z,14.25
2022-08-19T07:47:50.024Z,11.70
2022-08-19T07:50:17.738Z,14.73
2022-08-19T07:52:48.797Z,10.52
2022-08-19T07:55:42.584Z,10.55
2022-08-19T07:58:06.435Z,13.95
2022-08-19T08:00:33.494Z,14.20
2022-08-19T08:03:00.736Z,8.80
2022-08-19T08:06:03.295Z,12.55
2022-08-19T08:08:49.292Z,17.13
2022-08-19T08:11:20.838Z,13.02
2022-08-19T08:14:01.297Z,15.75
2022-08-19T08:16:39.529Z,18.48
2022-08-19T08:19:25.300Z,16.92
2022-08-19T08:21:55.150Z,15.68
2022-08-19T08:24:22.232Z,17.08
2022-08-19T08:26:57.134Z,15.35
2022-08-19T08:29:26.052Z,12.27
2022-08-19T08:31:59.686Z,13.85
2022-08-19T08:34:27.420Z,14.43
2022-08-19T08:36:54.392Z,21.13
2022-08-19T08:39:22.608Z,10.55
2022-08-19T08:42:01.717Z,14.00
2022-08-19T08:44:37.473Z,10.95
2022-08-19T08:47:11.582Z,10.98
2022-08-19T08:49:44.665Z,11.73
2022-08-19T08:52:36.565Z,12.32
2022-08-19T08:55:12.201Z,10.32
2022-08-19T08:57:56.349Z,7.30
2022-08-19T09:00:30.731Z,10.98
2022-08-19T09:02:59.498Z,12.68
2022-08-19T09:05:48.849Z,13.57
2022-08-19T09:08:31.703Z,15.85
2022-08-19T09:10:58.765Z,12.27
2022-08-19T09:13:48.444Z,9.82
2022-08-19T09:16:21.856Z,12.82
2022-08-19T09:19:03.408Z,16.08
2022-08-19T09:21:34.313Z,11.02
2022-08-19T09:24:03.421Z,11.05
2022-08-19T09:26:47.333Z,11.88
2022-08-19T09:29:15.828Z,12.02
2022-08-19T09:31:44.864Z,18.15
2022-08-19T09:34:21.106Z,14.38
2022-08-19T09:36:53.736Z,15.88
2022-08-19T09:39:20.895Z,10.10
2022-08-19T09:41:49.028Z,10.27
2022-08-19T09:44:18.128Z,10.80
2022-08-19T09:46:48.402Z,11.13
2022-08-19T09:49:18.505Z,10.50
2022-08-19T09:51:51.236Z,10.35
2022-08-19T09:54:23.590Z,15.35
2022-08-19T09:56:51.808Z,13.43
2022-08-19T09:59:19.301Z,9.95
2022-08-19T10:01:46.500Z,10.63
2022-08-19T10:04:14.912Z,16.30
2022-08-19T10:06:53.745Z,10.57
2022-08-19T10:09:33.685Z,16.05
2022-08-19T10:12:02.972Z,9.90
2022-08-19T10:14:30.469Z,15.02
2022-08-19T10:16:59.341Z,10.55
2022-08-19T10:19:26.952Z,11.88
2022-08-19T10:22:00.492Z,13.13
2022-08-19T10:24:29.276Z,11.27
2022-08-19T10:26:59.043Z,19.75
2022-08-19T10:29:33.093Z,11.43
2022-08-19T10:32:09.995Z,9.70
2022-08-19T10:34:47.888Z,9.85
2022-08-19T10:37:15.607Z,14.07
2022-08-19T10:39:51.600Z,11.82
2022-08-19T10:42:19.873Z,11.60
2022-08-19T10:44:47.955Z,12.27
2022-08-19T10:47:17.865Z,12.88
2022-08-19T10:50:12.257Z,12.77
2022-08-19T10:52:48.925Z,23.70
2022-08-19T10:55:36.008Z,14.50
2022-08-19T10:58:04.961Z,9.73
2022-08-19T11:00:32.723Z,14.30
2022-08-19T11:02:59.778Z,16.42
2022-08-19T11:05:26.862Z,13.65
2022-08-19T11:07:54.165Z,19.75
2022-08-19T11:10:25.138Z,15.38
2022-08-19T11:12:55.786Z,11.73
2022-08-19T11:15:25.330Z,20.05
2022-08-19T11:17:53.562Z,20.80
2022-08-19T11:20:20.778Z,18.60
2022-08-19T11:22:52.050Z,14.60
2022-08-19T11:25:19.190Z,19.17
2022-08-19T11:27:47.437Z,15.07
2022-08-19T11:30:16.329Z,14.25
2022-08-19T11:32:47.319Z,13.07
2022-08-19T11:35:17.386Z,17.88
2022-08-19T11:37:44.384Z,14.05
2022-08-19T11:40:12.252Z,17.75
2022-08-19T11:42:57.913Z,11.30
2022-08-19T11:45:28.305Z,14.75
2022-08-19T11:47:56.026Z,8.63
2022-08-19T11:50:24.724Z,12.88
2022-08-19T11:52:55.823Z,15.63
2022-08-19T11:55:23.283Z,13.68
2022-08-19T11:57:50.615Z,10.40
2022-08-19T12:00:17.770Z,15.52
2022-08-19T12:02:44.783Z,9.32
2022-08-19T12:05:13.060Z,16.42
2022-08-19T12:07:42.655Z,14.38
2022-08-19T12:10:10.760Z,13.48
2022-08-19T12:12:43.738Z,16.20
2022-08-19T12:15:13.224Z,13.75
2022-08-19T12:17:40.185Z,15.00
2022-08-19T12:20:10.097Z,15.48
2022-08-19T12:22:38.743Z,10.27
2022-08-19T12:25:06.596Z,11.23
2022-08-19T12:27:40.851Z,20.10
2022-08-19T12:30:12.111Z,19.13
2022-08-19T12:32:40.204Z,24.13
2022-08-19T12:35:10.289Z,22.52
2022-08-19T12:37:37.470Z,17.40
2022-08-19T12:40:05.359Z,30.60
2022-08-19T12:42:32.585Z,21.63
2022-08-19T12:44:59.603Z,22.20
2022-08-19T12:47:27.758Z,20.20
2022-08-19T12:49:56.116Z,15.77
2022-08-19T12:52:26.350Z,16.13
2022-08-19T12:54:55.753Z,24.50
2022-08-19T12:57:32.165Z,20.80
2022-08-19T13:00:26.495Z,20.23
2022-08-19T13:05:26.624Z,27.25
2022-08-19T13:07:58.527Z,30.55
2022-08-19T13:10:29.016Z,18.97
2022-08-19T13:12:57.072Z,17.08
2022-08-19T13:15:24.786Z,28.80
2022-08-19T13:17:54.885Z,31.40
2022-08-19T13:20:23.395Z,21.95
2022-08-19T13:22:50.534Z,20.83
2022-08-19T13:25:20.456Z,27.55
2022-08-19T13:27:49.358Z,19.13
2022-08-19T13:30:36.468Z,25.75
2022-08-19T13:33:12.446Z,22.65
2022-08-19T13:35:45.331Z,16.88
2022-08-19T13:38:13.869Z,24.42
2022-08-19T13:40:42.154Z,21.20
2022-08-19T13:43:17.756Z,20.40
2022-08-19T13:45:57.543Z,18.17
2022-08-19T13:48:27.663Z,20.33
2022-08-19T13:50:55.431Z,26.83
2022-08-19T13:53:22.547Z,22.25
2022-08-19T13:55:51.664Z,23.10
2022-08-19T13:58:18.650Z,17.48
2022-08-19T14:00:47.578Z,22.83
2022-08-19T14:03:14.966Z,19.50
2022-08-19T14:05:42.122Z,24.15
2022-08-19T14:08:10.514Z,24.15
2022-08-19T14:10:37.682Z,22.45
2022-08-19T14:13:05.293Z,26.15
2022-08-19T14:15:32.969Z,28.10
2022-08-19T14:18:00.557Z,25.63
2022-08-19T14:20:27.820Z,19.20
2022-08-19T14:22:56.005Z,22.48
2022-08-19T14:25:27.473Z,22.02
2022-08-19T14:27:55.355Z,22.23
2022-08-19T14:30:29.674Z,21.88
2022-08-19T14:32:59.503Z,22.40
2022-08-19T14:35:28.282Z,19.55
2022-08-19T14:37:56.650Z,20.23
2022-08-19T14:40:27.253Z,20.45
2022-08-19T14:43:00.533Z,17.70
2022-08-19T14:45:29.683Z,23.88
2022-08-19T14:47:56.775Z,22.27
2022-08-19T14:50:23.968Z,22.52
2022-08-19T14:52:52.040Z,22.77
2022-08-19T14:55:19.815Z,22.92
2022-08-19T14:57:47.029Z,18.08
2022-08-19T15:00:15.084Z,17.27
2022-08-19T15:02:45.310Z,18.20
2022-08-19T15:05:13.874Z,22.42
2022-08-19T15:07:42.090Z,15.40
2022-08-19T15:10:11.109Z,17.50
2022-08-19T15:12:43.989Z,15.90
2022-08-19T15:15:15.427Z,19.63
2022-08-19T15:17:54.359Z,19.88
2022-08-19T15:20:23.903Z,22.63
2022-08-19T15:22:51.244Z,19.90
2022-08-19T15:25:20.230Z,17.35
2022-08-19T15:27:48.255Z,22.33
2022-08-19T15:30:29.325Z,17.20
2022-08-19T15:32:57.590Z,22.05
2022-08-19T15:35:25.596Z,16.23
2022-08-19T15:37:54.341Z,17.35
2022-08-19T15:40:22.733Z,17.58
2022-08-19T15:42:50.276Z,17.70
2022-08-19T15:45:19.601Z,20.85
2022-08-19T15:47:47.273Z,19.63
2022-08-19T15:50:21.393Z,15.40
2022-08-19T15:52:57.328Z,19.85
2022-08-19T15:55:32.664Z,19.02
2022-08-19T15:58:29.713Z,20.00
2022-08-19T16:01:24.103Z,19.77
2022-08-19T16:04:14.758Z,23.35
2022-08-19T16:06:54.924Z,24.02
2022-08-19T16:09:27.577Z,24.40
2022-08-19T16:12:01.457Z,24.70
2022-08-19T16:14:30.897Z,22.92
2022-08-19T16:16:58.066Z,19.10
2022-08-19T16:19:25.750Z,18.52
2022-08-19T16:21:55.304Z,18.48
2022-08-19T16:24:25.478Z,17.65
2022-08-19T16:26:53.036Z,25.25
2022-08-19T16:29:34.497Z,20.85
2022-08-19T16:32:10.574Z,21.38
2022-08-19T16:34:42.021Z,24.35
2022-08-19T16:37:10.369Z,22.80
2022-08-19T16:39:37.679Z,24.40
2022-08-19T16:42:07.516Z,24.27
2022-08-19T16:44:35.819Z,20.27
2022-08-19T16:47:03.730Z,21.08
2022-08-19T16:49:53.211Z,20.58
2022-08-19T16:52:19.623Z,20.15
2022-08-19T16:54:47.154Z,20.65
2022-08-19T16:57:14.554Z,17.65
2022-08-19T16:59:44.112Z,20.88
2022-08-19T17:02:18.115Z,20.98
2022-08-19T17:04:57.604Z,25.50
2022-08-19T17:07:32.160Z,27.55
2022-08-19T17:10:02.345Z,23.38
2022-08-19T17:12:32.036Z,22.77
2022-08-19T17:15:01.052Z,21.33
2022-08-19T17:17:29.540Z,21.83
2022-08-19T17:20:01.428Z,21.70
2022-08-19T17:22:29.108Z,24.40
2022-08-19T17:24:58.287Z,18.90
2022-08-19T17:27:31.528Z,21.95
2022-08-19T17:30:02.838Z,20.30
2022-08-19T17:32:30.927Z,18.88
2022-08-19T17:34:59.911Z,17.38
2022-08-19T17:37:28.391Z,20.45
2022-08-19T17:39:55.867Z,17.75
2022-08-19T17:42:23.080Z,20.85
2022-08-19T17:44:50.847Z,23.67
2022-08-19T17:47:19.715Z,21.63
2022-08-19T17:49:47.112Z,21.00
2022-08-19T17:52:14.177Z,21.50
2022-08-19T17:54:41.293Z,24.45
2022-08-19T17:57:08.728Z,26.60
2022-08-19T17:59:37.648Z,19.88
2022-08-19T18:02:06.570Z,22.13
2022-08-19T18:04:33.608Z,20.63
2022-08-19T18:07:04.689Z,23.60
2022-08-19T18:09:41.516Z,19.65
2022-08-19T18:12:14.388Z,27.75
2022-08-19T18:14:41.857Z,23.45
2022-08-19T18:17:12.747Z,22.65
2022-08-19T18:19:43.102Z,19.73
2022-08-19T18:22:22.710Z,26.52
2022-08-19T18:24:50.018Z,23.08
2022-08-19T18:27:17.110Z,24.80
2022-08-19T18:29:45.078Z,20.17
2022-08-19T18:32:13.134Z,22.38
2022-08-19T18:34:42.107Z,24.42
2022-08-19T18:37:09.640Z,23.85
2022-08-19T18:39:55.515Z,21.45
2022-08-19T18:42:41.708Z,20.80
2022-08-19T18:45:28.432Z,16.58
2022-08-19T18:48:26.543Z,19.60
2022-08-19T18:50:57.061Z,27.10
2022-08-19T18:53:24.743Z,24.25
2022-08-19T18:55:54.089Z,23.25
2022-08-19T18:58:32.450Z,24.88
2022-08-19T19:01:15.389Z,26.33
2022-08-19T19:06:22.673Z,28.42
2022-08-19T19:08:51.582Z,21.85
2022-08-19T19:11:25.250Z,20.55
2022-08-19T19:13:55.092Z,18.63
2022-08-19T19:16:24.682Z,18.88
2022-08-19T19:18:53.084Z,19.30
2022-08-19T19:21:22.351Z,23.05
2022-08-19T19:23:50.127Z,17.58
2022-08-19T19:26:18.233Z,21.67
2022-08-19T19:28:46.160Z,19.75
2022-08-19T19:31:20.767Z,17.38
2022-08-19T19:33:47.969Z,22.77
2022-08-19T19:36:15.584Z,19.38
2022-08-19T19:38:48.705Z,21.42
2022-08-19T19:41:19.468Z,18.50
2022-08-19T19:43:46.873Z,17.40
2022-08-19T19:46:16.730Z,16.48
2022-08-19T19:48:48.689Z,21.60
2022-08-19T19:51:17.559Z,24.03
2022-08-19T19:53:44.606Z,21.33
2022-08-19T19:56:13.160Z,22.25
2022-08-19T19:58:40.338Z,18.27
2022-08-19T20:01:13.020Z,22.67
2022-08-19T20:03:49.024Z,22.48
2022-08-19T20:06:18.372Z,25.13
2022-08-19T20:09:05.777Z,19.17
2022-08-19T20:11:45.932Z,14.68
2022-08-19T20:14:17.081Z,21.95
2022-08-19T20:16:46.209Z,21.67
2022-08-19T20:19:16.147Z,16.02
2022-08-19T20:21:47.586Z,19.05
2022-08-19T20:24:22.763Z,20.08
2022-08-19T20:26:53.359Z,17.60
2022-08-19T20:29:39.124Z,20.48
2022-08-19T20:32:08.837Z,19.92
2022-08-19T20:34:36.168Z,21.73
2022-08-19T20:37:03.473Z,28.35
2022-08-19T20:39:30.537Z,23.45
2022-08-19T20:41:57.802Z,19.10
2022-08-19T20:44:25.729Z,21.30
2022-08-19T20:46:56.772Z,23.00
2022-08-19T20:51:58.668Z,23.67
2022-08-19T20:54:26.308Z,22.88
2022-08-19T20:56:54.379Z,23.75
2022-08-19T20:59:23.306Z,19.73
2022-08-19T21:01:53.780Z,19.80
2022-08-19T21:04:21.738Z,24.75
2022-08-19T21:06:50.176Z,20.80
2022-08-19T21:09:17.724Z,29.08
2022-08-19T21:11:44.821Z,18.30
2022-08-19T21:14:13.075Z,17.38
2022-08-19T21:16:40.042Z,16.27
2022-08-19T21:19:07.092Z,20.08
2022-08-19T21:21:35.211Z,18.15
2022-08-19T21:24:02.516Z,16.92
2022-08-19T21:26:29.480Z,22.13
2022-08-19T21:28:56.699Z,19.83
2022-08-19T21:31:23.766Z,21.38
2022-08-19T21:33:50.856Z,19.35
2022-08-19T21:36:17.882Z,22.73
2022-08-19T21:38:45.010Z,23.40
2022-08-19T21:41:12.121Z,18.58
2022-08-19T21:43:40.338Z,24.00
2022-08-19T21:46:09.289Z,24.38
2022-08-19T21:48:37.714Z,21.05
2022-08-19T21:51:04.873Z,24.63
2022-08-19T21:53:34.660Z,22.95
2022-08-19T21:56:06.984Z,28.15
2022-08-19T21:58:36.625Z,25.27
2022-08-19T22:01:08.088Z,23.45
2022-08-19T22:03:38.649Z,19.95
2022-08-19T22:06:06.814Z,26.20
2022-08-19T22:08:33.765Z,21.73
2022-08-19T22:11:02.659Z,20.48
2022-08-19T22:13:39.943Z,18.80
2022-08-19T22:16:08.099Z,21.25
2022-08-19T22:18:37.192Z,19.48
2022-08-19T22:21:11.213Z,20.25
2022-08-19T22:23:40.031Z,19.50
2022-08-19T22:26:07.130Z,19.50
2022-08-19T22:28:34.413Z,18.75
2022-08-19T22:31:03.416Z,13.43
2022-08-19T22:33:32.480Z,10.45
2022-08-19T22:36:00.022Z,12.02
2022-08-19T22:38:27.636Z,13.02
2022-08-19T22:40:56.797Z,10.18
2022-08-19T22:43:31.791Z,10.63
2022-08-19T22:46:00.691Z,8.35
2022-08-19T22:48:32.908Z,11.40
2022-08-19T22:51:21.196Z,12.43
2022-08-19T22:53:48.423Z,8.30
2022-08-19T22:56:21.154Z,15.73
2022-08-19T22:58:50.257Z,7.63
2022-08-19T23:01:27.539Z,10.63
2022-08-19T23:03:57.582Z,11.55
2022-08-19T23:06:27.981Z,6.05
2022-08-19T23:09:04.741Z,9.68
2022-08-19T23:11:41.593Z,10.48
2022-08-19T23:14:11.536Z,9.57
2022-08-19T23:16:39.530Z,6.00
2022-08-19T23:19:09.188Z,10.95
2022-08-19T23:21:36.543Z,6.25
2022-08-19T23:24:04.870Z,7.50
2022-08-19T23:26:35.733Z,7.32
2022-08-19T23:29:22.851Z,11.57
2022-08-19T23:31:50.117Z,11.27
2022-08-19T23:34:17.445Z,6.55
2022-08-19T23:36:44.508Z,14.00
2022-08-19T23:39:11.495Z,9.38
2022-08-19T23:41:39.601Z,7.47
2022-08-19T23:44:06.904Z,12.95
2022-08-19T23:46:54.510Z,9.20
2022-08-19T23:49:23.398Z,10.15
2022-08-19T23:51:50.369Z,11.10
2022-08-19T23:54:17.440Z,7.53
2022-08-19T23:56:44.435Z,8.93
2022-08-19T23:59:11.667Z,7.05
